Time;durP1;ratioP1;P1;durP2;ratioP2;P2;SDS_P1;SDS_P2;PMS_P1;PMS_P2;Temp;Humidity;BMP_temperature;BMP_pressure;BME280_temperature;BME280_humidity;BME280_pressure;Samples;Min_cycle;Max_cycle;Signal;HPM_P1;HPM_P2
2023/10/15 00:00:35;;;;;;;5.40;1.97;;;15.40;66.40;;;;;;5065583;28;21019;-64
2023/10/15 00:03:03;;;;;;;2.63;1.70;;;15.40;66.70;;;;;;5068683;28;20547;-64
2023/10/15 00:05:29;;;;;;;3.07;1.97;;;15.40;66.60;;;;;;5060840;28;20449;-63
2023/10/15 00:07:57;;;;;;;2.37;2.00;;;15.50;67.40;;;;;;5067441;28;20455;-65
2023/10/15 00:10:26;;;;;;;3.80;1.73;;;15.40;67.10;;;;;;5063811;28;20532;-63
2023/10/15 00:12:54;;;;;;;4.00;2.03;;;15.40;67.40;;;;;;5060505;28;20456;-62
2023/10/15 00:15:24;;;;;;;2.67;2.03;;;15.50;67.00;;;;;;5070320;28;20475;-63
2023/10/15 00:17:52;;;;;;;6.17;2.20;;;15.50;66.60;;;;;;5059652;28;20533;-63
2023/10/15 00:20:21;;;;;;;3.60;1.60;;;15.40;66.30;;;;;;5051986;28;20838;-63
2023/10/15 00:22:49;;;;;;;4.50;1.80;;;15.40;67.30;;;;;;5053574;28;20535;-64
2023/10/15 00:25:18;;;;;;;3.03;2.03;;;15.40;66.80;;;;;;5059402;28;20475;-64
2023/10/15 00:27:52;;;;;;;3.23;1.87;;;15.40;67.00;;;;;;5073914;28;20475;-64
2023/10/15 00:30:19;;;;;;;4.50;1.97;;;15.40;67.20;;;;;;5073720;28;20443;-64
2023/10/15 00:32:52;;;;;;;3.27;1.50;;;15.40;67.50;;;;;;5073851;28;20451;-64
2023/10/15 00:35:20;;;;;;;3.77;1.73;;;15.40;67.70;;;;;;5033944;28;20831;-65
2023/10/15 00:37:54;;;;;;;2.03;1.80;;;15.40;67.80;;;;;;5047314;28;20808;-64
2023/10/15 00:40:22;;;;;;;3.80;2.47;;;15.40;67.80;;;;;;5053824;28;20671;-64
2023/10/15 00:42:49;;;;;;;3.73;1.70;;;15.50;68.10;;;;;;5053277;28;20448;-64
2023/10/15 00:45:18;;;;;;;3.77;1.83;;;15.50;68.10;;;;;;5053948;28;20460;-64
2023/10/15 00:48:00;;;;;;;3.50;1.43;;;15.50;68.30;;;;;;5068970;28;20978;-63
2023/10/15 00:50:31;;;;;;;3.97;2.10;;;15.50;68.60;;;;;;5068751;28;20538;-64
2023/10/15 00:53:03;;;;;;;3.23;1.70;;;15.50;68.70;;;;;;5067383;28;20452;-64
2023/10/15 00:55:35;;;;;;;3.13;1.80;;;15.50;68.70;;;;;;5053727;28;20484;-64
2023/10/15 00:58:07;;;;;;;2.87;1.70;;;15.50;68.80;;;;;;5054450;28;20492;-64
2023/10/15 01:00:47;;;;;;;2.30;1.77;;;15.60;68.90;;;;;;5037028;28;20473;-63
2023/10/15 01:03:17;;;;;;;4.93;1.93;;;15.60;68.70;;;;;;5057414;28;21026;-63
2023/10/15 01:05:52;;;;;;;2.87;1.63;;;15.60;68.60;;;;;;5074022;28;20447;-63
2023/10/15 01:08:26;;;;;;;1.97;1.57;;;15.60;68.70;;;;;;5061363;28;20863;-63
2023/10/15 01:11:10;;;;;;;2.77;1.80;;;15.60;68.70;;;;;;5077398;28;20470;-63
2023/10/15 01:13:38;;;;;;;3.60;1.80;;;15.70;69.10;;;;;;5041415;28;20500;-63
2023/10/15 01:16:08;;;;;;;3.67;2.07;;;15.70;68.70;;;;;;5077046;28;20500;-64
2023/10/15 01:18:36;;;;;;;3.37;1.97;;;15.70;69.30;;;;;;5076930;28;20478;-63
2023/10/15 01:21:09;;;;;;;2.70;1.70;;;15.70;68.50;;;;;;5058879;28;20487;-63
2023/10/15 01:23:52;;;;;;;3.97;1.87;;;15.70;68.90;;;;;;5052999;28;20448;-64
2023/10/15 01:26:26;;;;;;;3.17;1.70;;;15.70;69.00;;;;;;5066843;28;20458;-62
2023/10/15 01:28:53;;;;;;;6.47;2.00;;;15.70;69.80;;;;;;5072326;28;20459;-64
2023/10/15 01:31:20;;;;;;;2.60;1.80;;;15.70;69.10;;;;;;5071818;28;20458;-64
2023/10/15 01:33:49;;;;;;;2.87;1.80;;;15.70;69.10;;;;;;5072564;28;20651;-63
2023/10/15 01:36:18;;;;;;;3.57;1.70;;;15.80;69.20;;;;;;5073193;28;20497;-63
2023/10/15 01:38:45;;;;;;;2.50;1.77;;;15.80;69.30;;;;;;5073457;28;20486;-64
2023/10/15 01:41:15;;;;;;;3.17;1.67;;;15.80;69.60;;;;;;5059414;28;20662;-64
2023/10/15 01:43:46;;;;;;;3.83;1.77;;;15.80;69.80;;;;;;5053558;28;20475;-63
2023/10/15 01:46:25;;;;;;;3.27;1.60;;;15.80;69.80;;;;;;5053226;28;20472;-63
2023/10/15 01:48:52;;;;;;;5.47;1.80;;;15.80;69.80;;;;;;5024850;28;20557;-63
2023/10/15 01:51:19;;;;;;;3.43;2.00;;;15.80;69.50;;;;;;5014523;28;20530;-63
2023/10/15 01:53:46;;;;;;;6.40;1.70;;;15.80;69.20;;;;;;5070316;28;20810;-63
2023/10/15 01:56:23;;;;;;;5.43;1.70;;;15.80;69.20;;;;;;5071788;28;20475;-63
2023/10/15 01:58:52;;;;;;;4.30;1.77;;;15.80;69.30;;;;;;5065893;28;20544;-63
2023/10/15 02:01:21;;;;;;;2.97;1.80;;;15.80;69.50;;;;;;5056796;28;20483;-63
2023/10/15 02:03:48;;;;;;;3.27;1.80;;;15.80;69.50;;;;;;5064834;28;20455;-63
2023/10/15 02:06:19;;;;;;;2.43;1.73;;;15.80;69.50;;;;;;5058591;28;20443;-64
2023/10/15 02:08:46;;;;;;;5.23;2.13;;;15.80;69.40;;;;;;5071431;28;20490;-64
2023/10/15 02:11:21;;;;;;;3.27;1.80;;;15.80;69.50;;;;;;5055915;28;20476;-63
2023/10/15 02:13:48;;;;;;;5.37;2.20;;;15.80;69.70;;;;;;5072053;28;20458;-62
2023/10/15 02:16:18;;;;;;;4.53;1.93;;;15.80;69.80;;;;;;5069364;28;20466;-65
2023/10/15 02:18:45;;;;;;;4.53;1.60;;;15.80;71.00;;;;;;5037505;28;20516;-64
2023/10/15 02:21:16;;;;;;;5.17;1.90;;;15.80;70.60;;;;;;5062101;28;20446;-64
2023/10/15 02:23:50;;;;;;;2.77;1.50;;;15.80;70.70;;;;;;5052896;28;20483;-63
2023/10/15 02:26:19;;;;;;;4.10;1.60;;;15.80;70.70;;;;;;5052726;28;20443;-64
2023/10/15 02:28:53;;;;;;;2.20;1.43;;;15.80;70.70;;;;;;5053123;28;20447;-64
2023/10/15 02:31:22;;;;;;;4.57;2.00;;;15.90;70.70;;;;;;5052967;28;20494;-64
2023/10/15 02:33:50;;;;;;;2.13;1.60;;;15.90;71.00;;;;;;5052561;28;20455;-64
2023/10/15 02:36:23;;;;;;;3.03;1.80;;;15.90;71.10;;;;;;5062623;28;20502;-63
2023/10/15 02:38:53;;;;;;;2.43;1.60;;;15.90;71.00;;;;;;5061086;28;20448;-64
2023/10/15 02:41:20;;;;;;;2.37;1.57;;;15.90;71.00;;;;;;5052878;28;20448;-63
2023/10/15 02:43:49;;;;;;;5.10;2.00;;;15.90;71.30;;;;;;5052081;28;20452;-64
2023/10/15 02:46:22;;;;;;;3.63;1.73;;;15.90;70.80;;;;;;5053075;28;20550;-63
2023/10/15 02:48:53;;;;;;;3.17;1.63;;;15.90;71.00;;;;;;5061306;28;20457;-66
2023/10/15 02:51:24;;;;;;;6.43;1.93;;;15.90;70.80;;;;;;5071238;28;20474;-64
2023/10/15 02:53:52;;;;;;;4.47;1.93;;;15.90;71.00;;;;;;5072365;28;20458;-64
2023/10/15 02:56:20;;;;;;;4.10;1.93;;;15.90;70.80;;;;;;5072426;28;20994;-64
2023/10/15 02:58:49;;;;;;;5.30;2.50;;;15.90;70.50;;;;;;5062784;28;20551;-64
2023/10/15 03:01:19;;;;;;;4.17;2.23;;;15.90;69.80;;;;;;5072449;28;20475;-64
2023/10/15 03:03:49;;;;;;;2.93;1.83;;;15.90;71.20;;;;;;5071486;28;20815;-64
2023/10/15 03:06:19;;;;;;;2.40;1.60;;;15.90;71.00;;;;;;5071014;28;20873;-64
2023/10/15 03:08:50;;;;;;;2.30;1.50;;;15.90;71.30;;;;;;5064610;28;20819;-64
2023/10/15 03:11:19;;;;;;;3.90;1.70;;;15.90;71.30;;;;;;5052605;28;20538;-63
2023/10/15 03:13:52;;;;;;;3.27;2.00;;;15.90;71.40;;;;;;5052711;28;20491;-64
2023/10/15 03:16:19;;;;;;;2.83;1.77;;;15.90;71.50;;;;;;5068530;28;20467;-63
2023/10/15 03:18:52;;;;;;;1.77;1.50;;;15.90;71.60;;;;;;5064679;28;20559;-63
2023/10/15 03:21:28;;;;;;;5.83;1.77;;;15.90;71.60;;;;;;5053147;28;20494;-63
2023/10/15 03:23:56;;;;;;;4.00;1.80;;;15.90;71.40;;;;;;5052373;28;20452;-63
2023/10/15 03:26:23;;;;;;;4.97;1.90;;;15.90;71.60;;;;;;5054666;28;20456;-63
2023/10/15 03:28:52;;;;;;;6.97;2.30;;;15.90;71.60;;;;;;5051323;28;20448;-63
2023/10/15 03:31:24;;;;;;;5.17;1.90;;;15.90;71.00;;;;;;5062414;28;20475;-63
2023/10/15 03:34:17;;;;;;;4.60;2.00;;;15.90;71.00;;;;;;5058308;28;20443;-64
2023/10/15 03:36:50;;;;;;;4.03;2.27;;;15.90;71.30;;;;;;5062894;28;21038;-63
2023/10/15 03:39:24;;;;;;;3.97;1.60;;;15.90;71.00;;;;;;5063437;28;20482;-64
2023/10/15 03:41:54;;;;;;;2.17;1.60;;;15.90;70.90;;;;;;5068400;28;20888;-64
2023/10/15 03:44:27;;;;;;;4.17;1.87;;;15.90;70.70;;;;;;5053156;28;20856;-63
2023/10/15 03:46:57;;;;;;;5.13;2.23;;;15.80;70.60;;;;;;5071238;28;20487;-64
2023/10/15 03:49:27;;;;;;;3.10;1.70;;;15.80;70.60;;;;;;5061271;28;20502;-64
2023/10/15 03:51:56;;;;;;;4.50;1.83;;;15.70;70.70;;;;;;5071472;28;20512;-64
2023/10/15 03:54:23;;;;;;;5.27;1.60;;;15.70;70.80;;;;;;5071362;28;20987;-64
2023/10/15 03:56:51;;;;;;;4.53;1.80;;;15.60;70.70;;;;;;5067209;28;20724;-64
2023/10/15 03:59:18;;;;;;;7.00;1.80;;;15.60;70.80;;;;;;5052913;28;20476;-63
2023/10/15 04:01:48;;;;;;;3.47;1.77;;;15.40;70.90;;;;;;5036650;28;20531;-64
2023/10/15 04:04:17;;;;;;;2.43;1.67;;;15.20;71.10;;;;;;5051604;28;20484;-64
2023/10/15 04:06:50;;;;;;;7.03;1.97;;;15.20;71.50;;;;;;5060456;28;20451;-64
2023/10/15 04:09:22;;;;;;;6.07;1.80;;;15.20;71.40;;;;;;5060347;28;20543;-64
2023/10/15 04:11:50;;;;;;;5.53;2.27;;;15.10;71.40;;;;;;5065520;28;20478;-63
2023/10/15 04:14:26;;;;;;;3.17;1.70;;;15.10;71.60;;;;;;5053257;28;20448;-64
2023/10/15 04:16:53;;;;;;;3.00;1.67;;;15.10;71.70;;;;;;5047307;28;20517;-64
2023/10/15 04:19:20;;;;;;;4.70;1.70;;;15.00;71.40;;;;;;5060948;28;20538;-64
2023/10/15 04:21:47;;;;;;;5.67;2.47;;;15.00;71.90;;;;;;5056835;28;20566;-64
2023/10/15 04:24:27;;;;;;;3.83;1.80;;;14.90;72.10;;;;;;5051690;28;20444;-64
2023/10/15 04:26:55;;;;;;;3.70;1.70;;;14.90;72.30;;;;;;5051747;28;20541;-64
2023/10/15 04:29:22;;;;;;;4.80;2.00;;;15.00;72.40;;;;;;5051553;28;20933;-64
2023/10/15 04:31:59;;;;;;;6.37;2.03;;;15.10;72.40;;;;;;5071630;28;20540;-64
2023/10/15 04:34:28;;;;;;;4.33;1.83;;;15.10;72.00;;;;;;5071637;28;21002;-64
2023/10/15 04:36:57;;;;;;;2.93;1.87;;;15.20;72.70;;;;;;5071049;28;20857;-64
2023/10/15 04:39:24;;;;;;;3.63;1.80;;;15.20;72.50;;;;;;5071692;28;20574;-64
2023/10/15 04:41:51;;;;;;;5.77;2.53;;;15.20;72.60;;;;;;5071948;28;20439;-64
2023/10/15 04:44:25;;;;;;;2.87;1.90;;;15.20;72.50;;;;;;5071236;28;20493;-64
2023/10/15 04:46:55;;;;;;;5.03;1.80;;;15.20;73.50;;;;;;5058321;28;20491;-63
2023/10/15 04:49:23;;;;;;;3.50;1.90;;;15.20;72.60;;;;;;5050116;28;20451;-63
2023/10/15 04:51:52;;;;;;;5.43;1.73;;;15.20;72.50;;;;;;5051237;28;20460;-64
2023/10/15 04:54:23;;;;;;;5.57;2.47;;;15.30;72.90;;;;;;5051611;28;20463;-64
2023/10/15 04:56:50;;;;;;;4.50;1.93;;;15.30;72.70;;;;;;5059386;28;20803;-64
2023/10/15 04:59:18;;;;;;;4.50;1.93;;;15.30;72.90;;;;;;5055538;28;20964;-64
2023/10/15 05:01:48;;;;;;;2.67;1.50;;;15.30;73.00;;;;;;5052211;28;20498;-64
2023/10/15 05:04:14;;;;;;;2.33;1.50;;;15.30;72.90;;;;;;5066435;28;20452;-63
2023/10/15 05:06:41;;;;;;;4.43;1.67;;;15.30;73.10;;;;;;5073645;28;20450;-65
2023/10/15 05:09:15;;;;;;;2.73;2.30;;;15.40;73.10;;;;;;5071132;28;20487;-64
2023/10/15 05:11:42;;;;;;;4.03;1.80;;;15.40;73.10;;;;;;5075181;28;20976;-64
2023/10/15 05:14:11;;;;;;;4.27;2.00;;;15.30;73.00;;;;;;5068092;28;20455;-65
2023/10/15 05:16:39;;;;;;;4.30;2.13;;;15.30;73.00;;;;;;5068409;28;20459;-64
2023/10/15 05:19:06;;;;;;;5.27;2.03;;;15.30;73.30;;;;;;5070206;28;20493;-64
2023/10/15 05:21:33;;;;;;;3.07;1.83;;;15.20;73.30;;;;;;5062608;28;20575;-64
2023/10/15 05:24:02;;;;;;;4.47;1.90;;;15.20;74.40;;;;;;5066264;28;20578;-64
2023/10/15 05:26:29;;;;;;;3.80;1.80;;;15.20;73.80;;;;;;5065929;28;20460;-64
2023/10/15 05:28:56;;;;;;;3.23;1.80;;;15.20;73.90;;;;;;5063745;28;20459;-64
2023/10/15 05:31:23;;;;;;;4.93;2.73;;;15.20;73.90;;;;;;5067795;28;20531;-64
2023/10/15 05:33:52;;;;;;;5.03;2.17;;;15.20;74.10;;;;;;5059848;28;20459;-64
2023/10/15 05:36:20;;;;;;;3.60;2.00;;;15.10;74.20;;;;;;5064457;28;21011;-64
2023/10/15 05:38:47;;;;;;;5.47;2.20;;;15.00;74.20;;;;;;5067785;28;20497;-64
2023/10/15 05:41:15;;;;;;;3.53;1.73;;;15.00;74.10;;;;;;5055436;28;20496;-64
2023/10/15 05:43:44;;;;;;;5.03;2.00;;;15.00;74.20;;;;;;5072784;28;20550;-64
2023/10/15 05:46:11;;;;;;;3.27;1.97;;;15.00;74.30;;;;;;5073863;28;20470;-65
2023/10/15 05:48:38;;;;;;;3.73;2.10;;;15.00;74.00;;;;;;5057834;28;20953;-64
2023/10/15 05:51:06;;;;;;;5.90;2.10;;;14.90;73.90;;;;;;5054178;28;20452;-64
2023/10/15 05:53:33;;;;;;;6.10;1.83;;;14.90;74.20;;;;;;5056307;28;20460;-65
2023/10/15 05:56:00;;;;;;;3.33;2.00;;;15.00;74.10;;;;;;5070025;28;20794;-63
2023/10/15 05:58:27;;;;;;;3.40;1.87;;;14.90;73.80;;;;;;5030539;28;20810;-64
2023/10/15 06:00:54;;;;;;;4.83;1.97;;;14.80;73.90;;;;;;5054242;28;20519;-64
2023/10/15 06:03:21;;;;;;;6.37;2.17;;;14.70;74.10;;;;;;5013699;28;20475;-64
2023/10/15 06:05:48;;;;;;;3.17;1.77;;;14.60;74.20;;;;;;5055189;28;20462;-64
2023/10/15 06:08:18;;;;;;;4.70;2.00;;;14.60;74.50;;;;;;5059849;28;20562;-64
2023/10/15 06:10:45;;;;;;;3.33;1.67;;;14.60;74.80;;;;;;5071950;28;20471;-64
2023/10/15 06:13:15;;;;;;;4.47;1.80;;;14.70;74.90;;;;;;5064387;28;20455;-63
2023/10/15 06:15:42;;;;;;;2.53;1.63;;;14.70;74.80;;;;;;5074409;28;20833;-64
2023/10/15 06:18:09;;;;;;;4.33;1.90;;;14.80;74.80;;;;;;5070114;28;20461;-63
2023/10/15 06:20:36;;;;;;;4.13;2.10;;;14.70;74.90;;;;;;5053779;28;20487;-64
2023/10/15 06:23:07;;;;;;;4.03;1.70;;;14.60;75.10;;;;;;5054207;28;20459;-64
2023/10/15 06:25:38;;;;;;;4.37;1.73;;;14.60;76.10;;;;;;5053625;28;20558;-64
2023/10/15 06:28:05;;;;;;;4.70;2.07;;;14.50;75.60;;;;;;5053866;28;20452;-63
2023/10/15 06:30:32;;;;;;;4.73;2.40;;;14.40;75.60;;;;;;5053292;28;20444;-64
2023/10/15 06:33:00;;;;;;;4.67;2.10;;;14.50;75.60;;;;;;5057340;28;20448;-64
2023/10/15 06:35:27;;;;;;;3.27;1.80;;;14.50;75.20;;;;;;5053849;28;20444;-64
2023/10/15 06:37:58;;;;;;;3.87;1.90;;;14.50;75.20;;;;;;5070934;28;20502;-64
2023/10/15 06:40:26;;;;;;;2.57;1.67;;;14.60;75.10;;;;;;5073583;28;20839;-64
2023/10/15 06:43:00;;;;;;;3.13;1.70;;;14.60;75.00;;;;;;5073940;28;20475;-64
2023/10/15 06:45:27;;;;;;;5.17;2.07;;;14.60;75.10;;;;;;5073670;28;20460;-63
2023/10/15 06:47:55;;;;;;;3.73;1.90;;;14.50;75.20;;;;;;5062664;28;20663;-64
2023/10/15 06:50:22;;;;;;;3.27;1.80;;;14.50;75.40;;;;;;5053401;28;20464;-63
2023/10/15 06:52:49;;;;;;;4.63;2.10;;;14.40;75.10;;;;;;5053438;28;20460;-64
2023/10/15 06:55:19;;;;;;;5.27;1.77;;;14.40;75.40;;;;;;5067637;28;20459;-64
2023/10/15 06:57:47;;;;;;;4.53;1.97;;;14.40;75.20;;;;;;5070822;28;20456;-64
2023/10/15 07:00:22;;;;;;;3.27;1.83;;;14.40;75.50;;;;;;5072319;28;20649;-64
2023/10/15 07:02:49;;;;;;;3.83;1.83;;;14.30;75.60;;;;;;5068217;28;20443;-63
2023/10/15 07:05:17;;;;;;;4.80;1.80;;;14.30;75.40;;;;;;5060005;28;20508;-64
2023/10/15 07:07:45;;;;;;;4.63;1.80;;;14.20;75.20;;;;;;5053201;28;20444;-64
2023/10/15 07:10:15;;;;;;;3.53;2.17;;;14.10;75.20;;;;;;4985824;28;20872;-64
2023/10/15 07:12:46;;;;;;;3.07;1.63;;;14.10;75.20;;;;;;5060301;28;20555;-64
2023/10/15 07:15:15;;;;;;;2.17;1.80;;;14.00;75.20;;;;;;5058477;28;20813;-64
2023/10/15 07:17:43;;;;;;;4.73;1.93;;;14.00;75.40;;;;;;5062845;28;20558;-64
2023/10/15 07:20:15;;;;;;;4.87;1.80;;;14.00;75.30;;;;;;5053919;28;20448;-64
2023/10/15 07:22:48;;;;;;;5.67;1.70;;;14.00;75.30;;;;;;5054243;28;21026;-64
2023/10/15 07:25:16;;;;;;;7.07;2.30;;;14.00;75.20;;;;;;5053016;28;20868;-64
2023/10/15 07:27:45;;;;;;;4.20;2.13;;;14.10;75.20;;;;;;5063475;28;20545;-62
2023/10/15 07:30:13;;;;;;;3.40;1.73;;;14.10;75.20;;;;;;5063026;28;20839;-64
2023/10/15 07:32:42;;;;;;;4.47;1.80;;;14.00;74.80;;;;;;5069563;28;20454;-64
2023/10/15 07:35:12;;;;;;;5.37;2.23;;;14.10;75.10;;;;;;5071566;28;20970;-63
2023/10/15 07:37:40;;;;;;;5.43;1.70;;;14.10;74.80;;;;;;5060706;28;20881;-63
2023/10/15 07:40:16;;;;;;;5.50;1.90;;;14.20;74.80;;;;;;5069280;28;20482;-64
2023/10/15 07:42:45;;;;;;;6.23;2.47;;;14.20;74.20;;;;;;5047583;28;20436;-64
2023/10/15 07:45:13;;;;;;;4.90;2.10;;;14.30;74.10;;;;;;5072517;28;20477;-64
2023/10/15 07:47:41;;;;;;;3.10;1.80;;;14.50;73.40;;;;;;5061141;28;20452;-63
2023/10/15 07:50:12;;;;;;;4.80;2.30;;;14.60;73.30;;;;;;5059094;28;20538;-63
2023/10/15 07:52:40;;;;;;;6.00;2.33;;;14.70;72.80;;;;;;5065868;28;20448;-64
2023/10/15 07:55:10;;;;;;;6.57;2.43;;;14.80;72.40;;;;;;5051975;28;20444;-64
2023/10/15 07:57:38;;;;;;;3.97;2.13;;;14.90;72.00;;;;;;5052987;28;20476;-63
2023/10/15 08:00:06;;;;;;;5.03;1.97;;;15.00;72.20;;;;;;5068905;28;20454;-63
2023/10/15 08:02:35;;;;;;;3.83;2.00;;;15.30;71.90;;;;;;5064136;28;20742;-64
2023/10/15 08:05:03;;;;;;;4.13;1.80;;;15.50;71.10;;;;;;5053182;28;20458;-64
2023/10/15 08:07:30;;;;;;;4.67;2.20;;;15.70;70.20;;;;;;5063593;28;20455;-64
2023/10/15 08:09:59;;;;;;;3.90;2.33;;;15.60;69.70;;;;;;5055830;28;20472;-64
2023/10/15 08:12:27;;;;;;;5.57;2.43;;;15.70;69.80;;;;;;5011077;28;20452;-65
2023/10/15 08:14:57;;;;;;;3.83;1.77;;;15.90;69.40;;;;;;5048212;28;20523;-64
2023/10/15 08:17:24;;;;;;;7.20;2.50;;;16.00;68.70;;;;;;5071450;28;20516;-64
2023/10/15 08:19:52;;;;;;;5.30;2.20;;;16.00;67.30;;;;;;5057412;28;20567;-64
2023/10/15 08:22:20;;;;;;;4.43;2.20;;;16.10;67.60;;;;;;5051390;28;20476;-64
2023/10/15 08:24:47;;;;;;;4.20;1.97;;;16.10;66.30;;;;;;5051855;28;20537;-64
2023/10/15 08:27:14;;;;;;;4.03;2.07;;;16.10;66.40;;;;;;5051787;28;20922;-64
2023/10/15 08:29:42;;;;;;;4.90;2.10;;;16.10;66.00;;;;;;5051764;28;20440;-64
2023/10/15 08:32:16;;;;;;;5.87;2.23;;;16.20;66.00;;;;;;5059110;28;20555;-64
2023/10/15 08:34:44;;;;;;;3.23;2.00;;;16.40;66.00;;;;;;5065403;28;20451;-64
2023/10/15 08:37:11;;;;;;;3.03;1.60;;;16.50;65.40;;;;;;5032041;28;20561;-64
2023/10/15 08:39:39;;;;;;;4.53;2.40;;;16.70;65.40;;;;;;5063450;28;20448;-64
2023/10/15 08:42:13;;;;;;;3.80;1.80;;;16.90;64.70;;;;;;5070462;28;20483;-64
2023/10/15 08:44:40;;;;;;;3.70;2.17;;;17.10;63.50;;;;;;5063553;28;20866;-64
2023/10/15 08:47:10;;;;;;;4.07;2.20;;;17.00;60.50;;;;;;5071151;28;20546;-65
2023/10/15 08:49:44;;;;;;;4.27;2.07;;;17.00;61.10;;;;;;5075383;28;20961;-65
2023/10/15 08:52:12;;;;;;;4.27;1.80;;;17.10;58.60;;;;;;5073546;28;20448;-65
2023/10/15 08:54:41;;;;;;;4.30;1.80;;;17.00;59.80;;;;;;5073757;28;20483;-64
2023/10/15 08:57:08;;;;;;;4.43;1.87;;;17.10;59.80;;;;;;5035620;28;20445;-64
2023/10/15 08:59:36;;;;;;;3.47;1.40;;;16.90;58.40;;;;;;5046728;28;20468;-64
2023/10/15 09:02:06;;;;;;;2.80;1.50;;;16.90;58.80;;;;;;5066248;28;20575;-64
2023/10/15 09:04:33;;;;;;;4.30;2.47;;;17.10;58.50;;;;;;5057297;28;20533;-64
2023/10/15 09:07:03;;;;;;;3.27;1.90;;;17.10;58.10;;;;;;5059607;28;20526;-64
2023/10/15 09:09:32;;;;;;;4.73;1.73;;;17.30;58.00;;;;;;5082055;28;20458;-64
2023/10/15 09:12:00;;;;;;;4.50;1.80;;;17.40;58.90;;;;;;5081461;28;20467;-65
2023/10/15 09:14:40;;;;;;;3.00;1.63;;;17.70;57.70;;;;;;5075705;28;20483;-69
2023/10/15 09:17:10;;;;;;;2.83;1.40;;;17.70;56.30;;;;;;5089354;28;20518;-64
2023/10/15 09:19:38;;;;;;;2.77;1.43;;;17.60;56.90;;;;;;5087113;28;20197;-65
2023/10/15 09:22:06;;;;;;;5.17;2.10;;;17.60;57.20;;;;;;5072949;28;20260;-65
2023/10/15 09:24:33;;;;;;;4.17;1.90;;;17.80;55.90;;;;;;5070213;28;20805;-64
2023/10/15 09:27:02;;;;;;;3.23;1.80;;;17.70;55.50;;;;;;5069284;28;20865;-65
2023/10/15 09:29:30;;;;;;;5.37;2.17;;;17.70;54.60;;;;;;5068462;28;20452;-64
2023/10/15 09:32:02;;;;;;;5.67;1.70;;;17.70;55.30;;;;;;5046374;28;20448;-64
2023/10/15 09:34:29;;;;;;;4.70;2.27;;;17.70;55.10;;;;;;5056574;28;20304;-64
2023/10/15 09:36:58;;;;;;;4.33;1.50;;;17.70;54.30;;;;;;5057093;28;20205;-64
2023/10/15 09:39:26;;;;;;;3.77;1.47;;;17.70;55.10;;;;;;5054822;28;20634;-64
2023/10/15 09:41:54;;;;;;;4.30;1.70;;;17.80;53.70;;;;;;5060124;28;20580;-64
2023/10/15 09:44:24;;;;;;;2.37;1.50;;;17.80;52.30;;;;;;5060011;28;20534;-64
2023/10/15 09:46:51;;;;;;;3.37;1.60;;;17.70;53.70;;;;;;5054097;28;20486;-64
2023/10/15 09:49:19;;;;;;;3.33;1.50;;;17.90;52.90;;;;;;5057598;28;20452;-64
2023/10/15 09:51:48;;;;;;;1.80;1.50;;;18.00;53.60;;;;;;5057469;28;20241;-64
2023/10/15 09:54:19;;;;;;;2.80;1.63;;;18.00;51.70;;;;;;5055728;28;20202;-64
2023/10/15 09:56:46;;;;;;;3.47;1.47;;;17.70;52.20;;;;;;5059822;28;20233;-64
2023/10/15 09:59:14;;;;;;;4.50;1.70;;;17.60;52.40;;;;;;5075673;28;20565;-65
2023/10/15 10:01:47;;;;;;;2.30;1.27;;;17.50;51.80;;;;;;5063586;28;20222;-66
2023/10/15 10:04:40;;;;;;;3.17;2.17;;;17.60;52.40;;;;;;5053853;28;20451;-64
2023/10/15 10:07:31;;;;;;;1.70;1.10;;;17.60;51.60;;;;;;5062171;28;20476;-64
2023/10/15 10:10:19;;;;;;;2.70;1.40;;;17.80;52.00;;;;;;5053922;28;20205;-64
2023/10/15 10:13:06;;;;;;;2.57;1.57;;;17.90;51.20;;;;;;5055066;28;20480;-64
2023/10/15 10:15:42;;;;;;;2.47;1.60;;;18.10;50.70;;;;;;5055039;28;20209;-65
2023/10/15 10:18:13;;;;;;;2.83;1.70;;;18.20;50.60;;;;;;5054087;28;20747;-64
2023/10/15 10:20:40;;;;;;;2.80;1.57;;;18.30;50.30;;;;;;5053144;28;21000;-64
2023/10/15 10:23:08;;;;;;;2.13;1.23;;;18.50;51.60;;;;;;5057166;28;20686;-65
2023/10/15 10:25:40;;;;;;;2.40;1.30;;;18.80;50.30;;;;;;5060965;28;20287;-64
2023/10/15 10:28:13;;;;;;;3.03;1.57;;;19.30;50.20;;;;;;5071006;28;20685;-64
2023/10/15 10:30:40;;;;;;;2.83;1.33;;;19.30;46.40;;;;;;5072606;28;20563;-65
2023/10/15 10:33:07;;;;;;;2.10;1.30;;;18.90;44.80;;;;;;5070492;28;20251;-64
2023/10/15 10:35:45;;;;;;;1.87;1.03;;;18.80;46.60;;;;;;5072703;28;20225;-64
2023/10/15 10:38:19;;;;;;;3.80;1.37;;;18.80;46.00;;;;;;5058074;28;20197;-64
2023/10/15 10:40:48;;;;;;;4.53;2.00;;;19.10;47.20;;;;;;5071590;28;20215;-64
2023/10/15 10:43:19;;;;;;;3.27;1.60;;;19.20;45.80;;;;;;5046074;28;20218;-64
2023/10/15 10:45:54;;;;;;;1.87;1.60;;;19.10;47.00;;;;;;5053488;28;20217;-64
2023/10/15 10:48:26;;;;;;;4.30;1.50;;;19.30;46.30;;;;;;5064097;28;20236;-64
2023/10/15 10:51:19;;;;;;;3.00;1.90;;;19.20;45.80;;;;;;5033138;28;20206;-64
2023/10/15 10:54:24;;;;;;;2.40;1.40;;;19.50;47.80;;;;;;5066492;28;20201;-64
2023/10/15 10:57:10;;;;;;;3.40;1.10;;;20.00;48.00;;;;;;5068024;28;20197;-64
2023/10/15 10:59:38;;;;;;;3.73;1.37;;;20.50;47.30;;;;;;5053524;28;20209;-64
2023/10/15 11:02:07;;;;;;;3.30;1.40;;;20.80;44.70;;;;;;5036443;28;20236;-64
2023/10/15 11:04:34;;;;;;;2.03;1.30;;;20.90;45.60;;;;;;5045958;28;20237;-64
2023/10/15 11:07:03;;;;;;;2.63;1.27;;;21.10;45.60;;;;;;5038396;28;20218;-64
2023/10/15 11:09:30;;;;;;;3.33;1.10;;;21.20;44.90;;;;;;5042025;28;20208;-64
2023/10/15 11:11:58;;;;;;;1.77;1.00;;;21.30;44.50;;;;;;5053430;28;20645;-64
2023/10/15 11:14:27;;;;;;;1.53;1.07;;;21.30;43.20;;;;;;5052016;28;20737;-65
2023/10/15 11:16:56;;;;;;;2.03;1.20;;;21.30;43.70;;;;;;5035937;28;20221;-64
2023/10/15 11:19:25;;;;;;;2.23;1.27;;;21.50;42.50;;;;;;5057237;28;20197;-64
2023/10/15 11:21:52;;;;;;;1.77;1.47;;;21.40;42.40;;;;;;5058776;28;20238;-64
2023/10/15 11:24:23;;;;;;;3.60;1.60;;;21.00;38.90;;;;;;5051656;28;20244;-65
2023/10/15 11:26:54;;;;;;;2.50;1.20;;;20.50;40.70;;;;;;5052002;28;20548;-64
2023/10/15 11:29:23;;;;;;;2.07;1.53;;;20.40;41.50;;;;;;5052679;28;20253;-64
2023/10/15 11:31:51;;;;;;;3.47;1.60;;;20.50;41.80;;;;;;5062463;28;20258;-64
2023/10/15 11:34:20;;;;;;;2.30;1.13;;;20.70;41.40;;;;;;5063604;28;20217;-65
2023/10/15 11:36:49;;;;;;;3.00;1.47;;;20.70;41.90;;;;;;5061434;28;20206;-64
2023/10/15 11:39:19;;;;;;;3.90;1.80;;;20.50;41.20;;;;;;5058745;28;20204;-64
2023/10/15 11:41:55;;;;;;;2.50;1.67;;;20.30;41.40;;;;;;5070893;28;20235;-64
2023/10/15 11:44:26;;;;;;;1.00;0.90;;;20.00;41.40;;;;;;5071832;28;20278;-64
2023/10/15 11:46:54;;;;;;;3.63;1.17;;;19.90;40.90;;;;;;5070175;28;20232;-64
2023/10/15 11:49:23;;;;;;;1.40;1.23;;;19.70;40.80;;;;;;5052353;28;20725;-64
2023/10/15 11:51:55;;;;;;;1.17;0.77;;;19.60;41.10;;;;;;5051451;28;20293;-64
2023/10/15 11:54:25;;;;;;;1.57;0.90;;;19.60;41.90;;;;;;5051476;28;20233;-64
2023/10/15 11:56:56;;;;;;;0.90;0.83;;;19.70;41.90;;;;;;5020031;28;20628;-65
2023/10/15 11:59:23;;;;;;;2.37;1.00;;;19.50;41.50;;;;;;5071069;28;20205;-64
2023/10/15 12:01:51;;;;;;;1.50;0.97;;;19.40;42.10;;;;;;5071411;28;20224;-64
2023/10/15 12:04:19;;;;;;;1.70;1.10;;;19.60;43.00;;;;;;5070111;28;20323;-64
2023/10/15 12:06:45;;;;;;;1.63;0.90;;;19.90;43.20;;;;;;5069539;28;20841;-65
2023/10/15 12:09:16;;;;;;;1.60;1.10;;;20.50;43.50;;;;;;5069987;28;20624;-64
2023/10/15 12:11:46;;;;;;;1.80;1.27;;;21.00;43.30;;;;;;5071807;28;20261;-64
2023/10/15 12:14:14;;;;;;;2.70;1.10;;;21.40;41.10;;;;;;5071508;28;20229;-64
2023/10/15 12:16:41;;;;;;;4.00;1.30;;;21.60;40.90;;;;;;5070854;28;20211;-64
2023/10/15 12:19:09;;;;;;;1.70;1.20;;;21.80;42.00;;;;;;5032757;28;20397;-65
2023/10/15 12:21:37;;;;;;;1.53;1.00;;;22.20;41.40;;;;;;5058067;28;20229;-64
2023/10/15 12:24:05;;;;;;;2.00;1.20;;;22.30;39.20;;;;;;5050489;28;20233;-64
2023/10/15 12:26:32;;;;;;;3.07;1.30;;;22.20;40.10;;;;;;5068209;28;20683;-65
2023/10/15 12:28:59;;;;;;;2.63;1.67;;;22.50;41.00;;;;;;5070471;28;20205;-65
2023/10/15 12:31:27;;;;;;;3.00;1.53;;;22.40;40.00;;;;;;5068623;28;20668;-64
2023/10/15 12:33:55;;;;;;;3.83;1.30;;;22.50;40.10;;;;;;5068713;28;20232;-65
2023/10/15 12:36:22;;;;;;;1.40;1.30;;;22.70;41.10;;;;;;5071244;28;20208;-65
2023/10/15 12:38:49;;;;;;;1.80;1.00;;;23.00;39.90;;;;;;5058766;28;20288;-64
2023/10/15 12:41:21;;;;;;;1.70;1.30;;;23.10;39.10;;;;;;5014645;28;20317;-64
2023/10/15 12:43:49;;;;;;;3.03;1.53;;;23.10;37.50;;;;;;5051287;28;20236;-64
2023/10/15 12:46:17;;;;;;;1.63;1.10;;;23.00;36.90;;;;;;5057583;28;20241;-66
2023/10/15 12:48:45;;;;;;;2.13;1.40;;;22.70;36.70;;;;;;5046609;28;20205;-64
2023/10/15 12:51:12;;;;;;;1.90;1.00;;;22.40;36.20;;;;;;5050959;28;20262;-64
2023/10/15 12:53:39;;;;;;;2.00;1.20;;;22.30;36.60;;;;;;5051078;28;20253;-64
2023/10/15 12:56:06;;;;;;;1.90;1.70;;;22.50;37.00;;;;;;5049334;28;20205;-64
2023/10/15 12:58:33;;;;;;;1.33;1.17;;;22.50;35.60;;;;;;5060867;28;20675;-64
2023/10/15 13:01:00;;;;;;;2.93;1.50;;;21.80;35.70;;;;;;5069177;28;20205;-64